Time;durP1;ratioP1;P1;durP2;ratioP2;P2;SDS_P1;SDS_P2;PMS_P1;PMS_P2;Temp;Humidity;BMP_temperature;BMP_pressure;BME280_temperature;BME280_humidity;BME280_pressure;Samples;Min_cycle;Max_cycle;Signal;HPM_P1;HPM_P2
2021/06/14 00:02:00;;;;;;;;;;;28.80;89.00;;;;;;5104743;28;19939;-55
2021/06/14 00:04:26;;;;;;;;;;;28.90;89.00;;;;;;5104926;28;20227;-53
2021/06/14 00:06:52;;;;;;;;;;;28.80;89.00;;;;;;5104454;28;20173;-56
2021/06/14 00:09:24;;;;;;;;;;;28.80;89.20;;;;;;5105008;28;20149;-56
2021/06/14 00:11:51;;;;;;;;;;;28.80;89.00;;;;;;5104384;28;20013;-56
2021/06/14 00:14:18;;;;;;;;;;;28.80;88.70;;;;;;5104125;28;20159;-55
2021/06/14 00:16:46;;;;;;;;;;;28.70;88.60;;;;;;5104391;28;19912;-54
2021/06/14 00:19:14;;;;;;;;;;;28.70;88.70;;;;;;5104233;28;19912;-51
2021/06/14 00:21:41;;;;;;;;;;;28.70;88.70;;;;;;5104426;28;19904;-54
2021/06/14 00:24:08;;;;;;;;;;;28.70;88.70;;;;;;5104573;28;19976;-54
2021/06/14 00:26:34;;;;;;;;;;;28.70;88.50;;;;;;5104458;28;19907;-53
2021/06/14 00:29:01;;;;;;;;;;;28.70;88.90;;;;;;5104345;28;19912;-52
2021/06/14 00:31:27;;;;;;;;;;;28.70;88.70;;;;;;5104207;28;19985;-52
2021/06/14 00:33:54;;;;;;;;;;;28.60;88.60;;;;;;5104529;28;19912;-53
2021/06/14 00:36:20;;;;;;;;;;;28.60;88.40;;;;;;5104277;28;19908;-53
2021/06/14 00:38:46;;;;;;;;;;;28.60;88.40;;;;;;5104451;28;19935;-55
2021/06/14 00:41:13;;;;;;;;;;;28.60;88.40;;;;;;5086204;28;19914;-53
2021/06/14 00:43:39;;;;;;;;;;;28.60;88.20;;;;;;5104310;28;19975;-54
2021/06/14 00:46:06;;;;;;;;;;;28.60;87.70;;;;;;5104419;28;19912;-54
2021/06/14 00:48:32;;;;;;;;;;;28.60;87.60;;;;;;5108138;28;20004;-51
2021/06/14 00:51:00;;;;;;;;;;;28.60;87.00;;;;;;5108087;28;19949;-54
2021/06/14 00:53:29;;;;;;;;;;;28.50;87.20;;;;;;5108284;28;20129;-56
2021/06/14 00:55:56;;;;;;;;;;;28.50;87.00;;;;;;5107505;28;20072;-54
2021/06/14 00:58:22;;;;;;;;;;;28.50;86.90;;;;;;5107958;28;19924;-51
2021/06/14 01:00:49;;;;;;;;;;;28.50;86.80;;;;;;5108101;28;19904;-55
2021/06/14 01:03:15;;;;;;;;;;;28.50;86.30;;;;;;5107891;28;19904;-52
2021/06/14 01:05:43;;;;;;;;;;;28.50;86.30;;;;;;5107907;28;19912;-52
2021/06/14 01:08:09;;;;;;;;;;;28.40;85.90;;;;;;5107600;28;19911;-52
2021/06/14 01:10:37;;;;;;;;;;;28.40;85.80;;;;;;5107737;28;19904;-53
2021/06/14 01:13:21;;;;;;;;;;;28.40;85.80;;;;;;5107415;28;20089;-53
2021/06/14 01:16:00;;;;;;;;;;;28.40;85.70;;;;;;5107899;28;19993;-57
2021/06/14 01:18:30;;;;;;;;;;;28.30;85.80;;;;;;5089566;28;20001;-52
2021/06/14 01:21:02;;;;;;;;;;;28.40;85.70;;;;;;5107719;28;19920;-53
2021/06/14 01:23:28;;;;;;;;;;;28.30;85.60;;;;;;5107393;28;20127;-55
2021/06/14 01:26:07;;;;;;;;;;;28.30;85.50;;;;;;5107069;28;20236;-54
2021/06/14 01:28:36;;;;;;;;;;;28.30;85.60;;;;;;5107271;28;20029;-53
2021/06/14 01:31:04;;;;;;;;;;;28.30;85.30;;;;;;5107055;28;19931;-51
2021/06/14 01:33:31;;;;;;;;;;;28.20;85.60;;;;;;5106960;28;19947;-52
2021/06/14 01:36:08;;;;;;;;;;;28.30;85.50;;;;;;5107293;28;19949;-54
2021/06/14 01:38:35;;;;;;;;;;;28.20;85.00;;;;;;5107059;28;19912;-53
2021/06/14 01:41:03;;;;;;;;;;;28.20;85.00;;;;;;5107157;28;19904;-52
2021/06/14 01:43:30;;;;;;;;;;;28.20;85.30;;;;;;5106980;28;19912;-51
2021/06/14 01:46:03;;;;;;;;;;;28.20;85.10;;;;;;5089070;28;19909;-55
2021/06/14 01:48:29;;;;;;;;;;;28.10;84.90;;;;;;5106975;28;20188;-54
2021/06/14 01:50:56;;;;;;;;;;;28.10;84.80;;;;;;5106757;28;19904;-49
2021/06/14 01:53:22;;;;;;;;;;;28.10;84.80;;;;;;5106543;28;19924;-54
2021/06/14 01:55:48;;;;;;;;;;;28.10;84.80;;;;;;5106509;28;19951;-53
2021/06/14 01:58:16;;;;;;;;;;;28.10;84.60;;;;;;5106454;28;20185;-54
2021/06/14 02:00:43;;;;;;;;;;;28.10;84.60;;;;;;5106517;28;19947;-53
2021/06/14 02:03:10;;;;;;;;;;;28.00;84.30;;;;;;5106543;28;20102;-54
2021/06/14 02:05:37;;;;;;;;;;;28.00;84.40;;;;;;5106828;28;19908;-55
2021/06/14 02:08:07;;;;;;;;;;;28.00;84.60;;;;;;5088355;28;19904;-53
2021/06/14 02:10:34;;;;;;;;;;;28.00;84.20;;;;;;5106307;28;19904;-54
2021/06/14 02:13:00;;;;;;;;;;;28.00;84.10;;;;;;5088225;28;20215;-49
2021/06/14 02:15:27;;;;;;;;;;;28.00;84.10;;;;;;5106310;28;19924;-53
2021/06/14 02:17:55;;;;;;;;;;;28.00;84.00;;;;;;5105976;28;19908;-53
2021/06/14 02:20:21;;;;;;;;;;;28.00;83.80;;;;;;5106875;28;19912;-55
2021/06/14 02:22:47;;;;;;;;;;;27.90;84.00;;;;;;5106269;28;19911;-53
2021/06/14 02:25:14;;;;;;;;;;;27.90;83.80;;;;;;5106575;28;19918;-54
2021/06/14 02:27:41;;;;;;;;;;;27.90;83.90;;;;;;5105894;28;19904;-55
2021/06/14 02:30:16;;;;;;;;;;;27.90;83.90;;;;;;5106202;28;19983;-52
2021/06/14 02:32:43;;;;;;;;;;;27.90;84.10;;;;;;5105907;28;19911;-52
2021/06/14 02:35:10;;;;;;;;;;;27.90;84.10;;;;;;5105842;28;19915;-52
2021/06/14 02:37:37;;;;;;;;;;;27.80;84.40;;;;;;5087617;28;19943;-54
2021/06/14 02:40:05;;;;;;;;;;;27.90;84.70;;;;;;5106588;28;19935;-55
2021/06/14 02:42:31;;;;;;;;;;;27.80;84.50;;;;;;5105664;28;19911;-55
2021/06/14 02:44:58;;;;;;;;;;;27.80;83.80;;;;;;5106034;28;19978;-56
2021/06/14 02:47:24;;;;;;;;;;;27.80;84.00;;;;;;5105729;28;19977;-52
2021/06/14 02:49:50;;;;;;;;;;;27.80;83.40;;;;;;5106028;28;19912;-51
2021/06/14 02:52:18;;;;;;;;;;;27.70;83.70;;;;;;5087449;28;19947;-52
2021/06/14 02:55:07;;;;;;;;;;;27.70;83.60;;;;;;5105836;28;20149;-52
2021/06/14 02:57:34;;;;;;;;;;;27.70;83.60;;;;;;5095096;28;20200;-53
2021/06/14 03:00:01;;;;;;;;;;;27.70;83.90;;;;;;5105794;28;19919;-54
2021/06/14 03:02:27;;;;;;;;;;;27.70;83.90;;;;;;5105595;28;19911;-52
2021/06/14 03:04:54;;;;;;;;;;;27.70;83.80;;;;;;5105764;28;19916;-53
2021/06/14 03:07:22;;;;;;;;;;;27.70;83.90;;;;;;5105360;28;19911;-52
2021/06/14 03:09:48;;;;;;;;;;;27.70;83.90;;;;;;5104851;28;19912;-53
2021/06/14 03:12:15;;;;;;;;;;;27.70;84.10;;;;;;5087002;28;19904;-52
2021/06/14 03:14:42;;;;;;;;;;;27.70;84.20;;;;;;5105403;28;19912;-51
2021/06/14 03:17:08;;;;;;;;;;;27.60;84.40;;;;;;5105030;28;19947;-56
2021/06/14 03:19:35;;;;;;;;;;;27.60;84.60;;;;;;5105341;28;19919;-56
2021/06/14 03:22:03;;;;;;;;;;;27.60;84.50;;;;;;5105117;28;19911;-59
2021/06/14 03:24:30;;;;;;;;;;;27.60;84.40;;;;;;5105352;28;19912;-54
2021/06/14 03:26:58;;;;;;;;;;;27.60;84.10;;;;;;5104743;28;19915;-56
2021/06/14 03:29:25;;;;;;;;;;;27.60;83.70;;;;;;5105098;28;19912;-53
2021/06/14 03:31:52;;;;;;;;;;;27.60;83.50;;;;;;5104795;28;19905;-52
2021/06/14 03:34:19;;;;;;;;;;;27.50;83.40;;;;;;5104851;28;19912;-52
2021/06/14 03:36:46;;;;;;;;;;;27.50;83.60;;;;;;5104497;28;19908;-51
2021/06/14 03:39:14;;;;;;;;;;;27.50;83.90;;;;;;5104674;28;19912;-52
2021/06/14 03:41:42;;;;;;;;;;;27.50;84.10;;;;;;5092037;28;19912;-47
2021/06/14 03:44:08;;;;;;;;;;;27.60;84.10;;;;;;5085665;28;19935;-49
2021/06/14 03:46:34;;;;;;;;;;;27.50;84.30;;;;;;5088505;28;19912;-50
2021/06/14 03:49:00;;;;;;;;;;;27.50;84.40;;;;;;5088220;28;19958;-51
2021/06/14 03:51:27;;;;;;;;;;;27.50;84.10;;;;;;5090480;28;19951;-50
2021/06/14 03:53:59;;;;;;;;;;;27.50;84.00;;;;;;5104163;28;19919;-51
2021/06/14 03:56:26;;;;;;;;;;;27.50;83.80;;;;;;5090417;28;20201;-48
2021/06/14 03:58:53;;;;;;;;;;;27.50;83.70;;;;;;5082547;28;20086;-48
2021/06/14 04:01:20;;;;;;;;;;;27.50;83.70;;;;;;5086877;28;19927;-49
2021/06/14 04:04:40;;;;;;;;;;;27.50;83.40;;;;;;5096834;28;19983;-47
2021/06/14 04:06:33;;;;;;;;;;;27.40;83.30;;;;;;5085290;28;19904;-49
2021/06/14 04:08:59;;;;;;;;;;;27.40;83.30;;;;;;5066015;28;20097;-50
2021/06/14 04:11:25;;;;;;;;;;;27.40;83.40;;;;;;5096415;28;19904;-56
2021/06/14 04:13:51;;;;;;;;;;;27.40;83.40;;;;;;5101409;28;19974;-47
2021/06/14 04:16:18;;;;;;;;;;;27.40;83.30;;;;;;5099051;28;19914;-49
2021/06/14 04:18:44;;;;;;;;;;;27.40;83.70;;;;;;5081370;28;19912;-50
2021/06/14 04:21:11;;;;;;;;;;;27.40;83.70;;;;;;5099127;28;19947;-53
2021/06/14 04:23:37;;;;;;;;;;;27.40;83.70;;;;;;5096570;28;20243;-55
2021/06/14 04:26:03;;;;;;;;;;;27.40;84.30;;;;;;5095648;28;19908;-53
2021/06/14 04:28:31;;;;;;;;;;;27.30;84.50;;;;;;5095696;28;19919;-51
2021/06/14 04:30:57;;;;;;;;;;;27.40;84.60;;;;;;5097722;28;19939;-56
2021/06/14 04:33:25;;;;;;;;;;;27.40;84.80;;;;;;5098994;28;19912;-55
2021/06/14 04:35:51;;;;;;;;;;;27.40;85.10;;;;;;5086972;28;19949;-53
2021/06/14 04:38:17;;;;;;;;;;;27.30;85.30;;;;;;5108069;28;19907;-49
2021/06/14 04:40:43;;;;;;;;;;;27.40;85.30;;;;;;5108421;28;20344;-53
2021/06/14 04:43:09;;;;;;;;;;;27.40;85.50;;;;;;5107780;28;19911;-50
2021/06/14 04:45:35;;;;;;;;;;;27.30;85.40;;;;;;5108510;28;19912;-55
2021/06/14 04:48:02;;;;;;;;;;;27.40;85.70;;;;;;5108073;28;19980;-50
2021/06/14 04:50:28;;;;;;;;;;;27.30;85.40;;;;;;5108315;28;19940;-52
2021/06/14 04:52:55;;;;;;;;;;;27.30;85.50;;;;;;5108473;28;19911;-54
2021/06/14 04:55:21;;;;;;;;;;;27.30;85.70;;;;;;5107936;28;19996;-55
2021/06/14 04:57:47;;;;;;;;;;;27.30;86.00;;;;;;5107695;28;19947;-51
2021/06/14 05:00:15;;;;;;;;;;;27.30;86.40;;;;;;5108392;28;19950;-50
2021/06/14 05:02:41;;;;;;;;;;;27.30;86.60;;;;;;5107767;28;19904;-60
2021/06/14 05:05:08;;;;;;;;;;;27.30;86.50;;;;;;5108415;28;19912;-56
2021/06/14 05:07:34;;;;;;;;;;;27.20;86.50;;;;;;5107959;28;19910;-54
2021/06/14 05:10:00;;;;;;;;;;;27.20;86.30;;;;;;5108105;28;19919;-52
2021/06/14 05:12:26;;;;;;;;;;;27.20;86.00;;;;;;5107373;28;19905;-53
2021/06/14 05:14:53;;;;;;;;;;;27.20;85.90;;;;;;5108212;28;20185;-53
2021/06/14 05:17:19;;;;;;;;;;;27.20;86.00;;;;;;5107418;28;19912;-54
2021/06/14 05:19:46;;;;;;;;;;;27.20;86.20;;;;;;5108058;28;19912;-53
2021/06/14 05:22:12;;;;;;;;;;;27.20;86.60;;;;;;5107443;28;19972;-63
2021/06/14 05:24:38;;;;;;;;;;;27.20;87.40;;;;;;5107739;28;19954;-54
2021/06/14 05:27:05;;;;;;;;;;;27.20;87.10;;;;;;5107025;28;19931;-54
2021/06/14 05:29:33;;;;;;;;;;;27.20;87.10;;;;;;5107879;28;20121;-52
2021/06/14 05:32:00;;;;;;;;;;;27.20;87.00;;;;;;5106280;28;19911;-54
2021/06/14 05:34:26;;;;;;;;;;;27.20;87.10;;;;;;5107531;28;19911;-53
2021/06/14 05:36:53;;;;;;;;;;;27.10;87.40;;;;;;5107296;28;19908;-57
2021/06/14 05:39:19;;;;;;;;;;;27.20;87.60;;;;;;5107347;28;19964;-53
2021/06/14 05:41:48;;;;;;;;;;;27.20;87.50;;;;;;5100744;28;19916;-53
2021/06/14 05:44:15;;;;;;;;;;;27.10;87.40;;;;;;5088933;28;20103;-57
2021/06/14 05:46:41;;;;;;;;;;;27.10;87.50;;;;;;5095309;28;19939;-53
2021/06/14 05:49:08;;;;;;;;;;;27.20;87.60;;;;;;5097309;28;20146;-54
2021/06/14 05:51:34;;;;;;;;;;;27.10;88.00;;;;;;5096617;28;19943;-58
2021/06/14 05:54:00;;;;;;;;;;;27.10;88.00;;;;;;5098261;28;20077;-54
2021/06/14 05:56:27;;;;;;;;;;;27.10;88.30;;;;;;5090221;28;19916;-53
2021/06/14 05:58:53;;;;;;;;;;;27.10;88.70;;;;;;5088771;28;19912;-51
2021/06/14 06:01:19;;;;;;;;;;;27.10;88.70;;;;;;5106633;28;19908;-51
2021/06/14 06:03:45;;;;;;;;;;;27.10;88.90;;;;;;5106597;28;20026;-51
2021/06/14 06:06:11;;;;;;;;;;;27.10;88.90;;;;;;5106758;28;19914;-52
2021/06/14 06:08:38;;;;;;;;;;;27.10;88.90;;;;;;5088614;28;20193;-54
2021/06/14 06:11:04;;;;;;;;;;;27.10;89.00;;;;;;5106090;28;19915;-50
2021/06/14 06:13:30;;;;;;;;;;;27.00;89.10;;;;;;5106555;28;20184;-53
2021/06/14 06:15:57;;;;;;;;;;;27.10;89.30;;;;;;5099737;28;19911;-51
2021/06/14 06:18:23;;;;;;;;;;;27.00;89.30;;;;;;5096796;28;20223;-50
2021/06/14 06:20:50;;;;;;;;;;;27.10;89.40;;;;;;5100532;28;19971;-55
2021/06/14 06:23:16;;;;;;;;;;;27.00;89.40;;;;;;5085868;28;19909;-52
2021/06/14 06:25:42;;;;;;;;;;;27.00;89.40;;;;;;5090779;28;19923;-51
2021/06/14 06:28:09;;;;;;;;;;;27.00;89.60;;;;;;5085785;28;19962;-52
2021/06/14 06:30:38;;;;;;;;;;;27.00;89.70;;;;;;5085898;28;19912;-54
2021/06/14 06:33:10;;;;;;;;;;;27.00;89.70;;;;;;5085600;28;19904;-53
2021/06/14 06:35:36;;;;;;;;;;;27.00;89.60;;;;;;5085765;28;20178;-51
2021/06/14 06:38:03;;;;;;;;;;;27.00;89.40;;;;;;5085589;28;19909;-51
2021/06/14 06:40:29;;;;;;;;;;;27.00;89.50;;;;;;5085183;28;19904;-51
2021/06/14 06:42:57;;;;;;;;;;;27.00;89.50;;;;;;5085457;28;19904;-51
2021/06/14 06:45:23;;;;;;;;;;;26.90;89.60;;;;;;5085152;28;19957;-51
2021/06/14 06:47:50;;;;;;;;;;;26.90;89.50;;;;;;5067566;28;19908;-51
2021/06/14 06:50:17;;;;;;;;;;;26.90;89.70;;;;;;5085920;28;19912;-51
2021/06/14 06:52:43;;;;;;;;;;;26.90;90.00;;;;;;5085356;28;19910;-52
2021/06/14 06:55:11;;;;;;;;;;;26.90;89.80;;;;;;5084931;28;19925;-51
2021/06/14 06:57:37;;;;;;;;;;;26.90;89.90;;;;;;5085217;28;19908;-52
2021/06/14 07:00:05;;;;;;;;;;;26.90;89.80;;;;;;5085674;28;19912;-51
2021/06/14 07:02:31;;;;;;;;;;;26.90;89.60;;;;;;5085116;28;20203;-52
2021/06/14 07:04:58;;;;;;;;;;;26.90;89.60;;;;;;5069795;28;19912;-52
2021/06/14 07:07:24;;;;;;;;;;;26.90;90.00;;;;;;5084449;28;19966;-56
2021/06/14 07:09:50;;;;;;;;;;;26.90;90.20;;;;;;5084421;28;20137;-50
2021/06/14 07:12:16;;;;;;;;;;;26.90;90.40;;;;;;5083952;28;19916;-51
2021/06/14 07:14:42;;;;;;;;;;;26.90;90.60;;;;;;5083906;28;19920;-52
2021/06/14 07:17:09;;;;;;;;;;;26.90;90.60;;;;;;5084713;28;19922;-52
2021/06/14 07:19:47;;;;;;;;;;;26.80;90.70;;;;;;5085037;28;20153;-51
2021/06/14 07:22:13;;;;;;;;;;;26.80;90.90;;;;;;5084902;28;19927;-58
2021/06/14 07:24:39;;;;;;;;;;;26.80;91.10;;;;;;5085032;28;20019;-53
2021/06/14 07:27:06;;;;;;;;;;;26.80;91.00;;;;;;5085003;28;19904;-51
2021/06/14 07:29:32;;;;;;;;;;;26.80;91.30;;;;;;5084886;28;19954;-54
2021/06/14 07:31:58;;;;;;;;;;;26.80;91.40;;;;;;5084558;28;19904;-52
2021/06/14 07:34:25;;;;;;;;;;;26.80;91.40;;;;;;5084753;28;19983;-51
2021/06/14 07:36:52;;;;;;;;;;;26.80;91.40;;;;;;5084572;28;19915;-51
2021/06/14 07:39:18;;;;;;;;;;;26.80;91.40;;;;;;5084644;28;19979;-53
2021/06/14 07:41:44;;;;;;;;;;;26.80;91.50;;;;;;5084480;28;19919;-55
2021/06/14 07:44:10;;;;;;;;;;;26.70;91.50;;;;;;5084677;28;19918;-52
2021/06/14 07:46:36;;;;;;;;;;;26.70;91.30;;;;;;5084625;28;19927;-53
2021/06/14 07:49:03;;;;;;;;;;;26.70;91.20;;;;;;5084540;28;19913;-54
2021/06/14 07:51:29;;;;;;;;;;;26.70;91.10;;;;;;5084618;28;19905;-53
2021/06/14 07:53:55;;;;;;;;;;;26.70;91.00;;;;;;5084549;28;19912;-53
2021/06/14 07:56:22;;;;;;;;;;;26.60;91.00;;;;;;5083677;28;19983;-53
2021/06/14 07:58:48;;;;;;;;;;;26.70;90.90;;;;;;5084417;28;19916;-56
2021/06/14 08:01:15;;;;;;;;;;;26.60;90.90;;;;;;5084348;28;20219;-56
2021/06/14 08:03:41;;;;;;;;;;;26.60;90.80;;;;;;5084264;28;19940;-55
2021/06/14 08:06:07;;;;;;;;;;;26.60;90.80;;;;;;5084458;28;19905;-55
2021/06/14 08:08:36;;;;;;;;;;;26.60;90.70;;;;;;5084204;28;20189;-51
2021/06/14 08:11:02;;;;;;;;;;;26.70;90.70;;;;;;5084120;28;20197;-52
2021/06/14 08:13:29;;;;;;;;;;;26.60;90.60;;;;;;5084321;28;19913;-51
2021/06/14 08:15:55;;;;;;;;;;;26.60;90.70;;;;;;5084047;28;19904;-52
2021/06/14 08:26:11;;;;;;;;;;;26.50;90.90;;;;;;5084210;28;19971;-53
2021/06/14 08:28:37;;;;;;;;;;;26.50;90.90;;;;;;5084118;28;20105;-58
2021/06/14 08:31:04;;;;;;;;;;;26.50;91.00;;;;;;5083887;28;19954;-50
2021/06/14 08:33:31;;;;;;;;;;;26.50;91.10;;;;;;5083969;28;19912;-52
2021/06/14 08:35:58;;;;;;;;;;;26.50;91.10;;;;;;5083919;28;19911;-52
2021/06/14 08:38:25;;;;;;;;;;;26.50;91.10;;;;;;5083773;28;19935;-53
2021/06/14 08:40:51;;;;;;;;;;;26.50;91.10;;;;;;5083870;28;19905;-55
2021/06/14 08:43:20;;;;;;;;;;;26.50;91.10;;;;;;5083879;28;20245;-53
2021/06/14 08:45:48;;;;;;;;;;;26.50;91.30;;;;;;5083721;28;19909;-58
2021/06/14 08:48:14;;;;;;;;;;;26.50;91.30;;;;;;5083894;28;19904;-53
2021/06/14 08:50:41;;;;;;;;;;;26.50;91.40;;;;;;5083762;28;20021;-54
2021/06/14 08:53:08;;;;;;;;;;;26.50;91.50;;;;;;5083770;28;19954;-52
2021/06/14 08:55:37;;;;;;;;;;;26.40;91.50;;;;;;5083658;28;19917;-52
2021/06/14 08:58:05;;;;;;;;;;;26.40;91.50;;;;;;5083586;28;19953;-51
2021/06/14 09:00:33;;;;;;;;;;;26.40;91.60;;;;;;5083696;28;19972;-50
2021/06/14 09:02:59;;;;;;;;;;;26.40;91.60;;;;;;5083669;28;20198;-51
2021/06/14 09:05:29;;;;;;;;;;;26.40;91.60;;;;;;5084166;28;19970;-56
2021/06/14 09:07:55;;;;;;;;;;;26.30;91.70;;;;;;5084831;28;19913;-51
2021/06/14 09:10:21;;;;;;;;;;;26.30;91.80;;;;;;5087702;28;19917;-55
2021/06/14 09:12:48;;;;;;;;;;;26.30;91.90;;;;;;5087293;28;19909;-52
2021/06/14 09:15:14;;;;;;;;;;;26.30;92.00;;;;;;5087563;28;19950;-51
2021/06/14 09:17:51;;;;;;;;;;;26.20;91.80;;;;;;5087263;28;19954;-53
2021/06/14 09:20:17;;;;;;;;;;;26.20;91.80;;;;;;5087618;28;19962;-51
2021/06/14 09:22:43;;;;;;;;;;;26.20;91.80;;;;;;5086997;28;19927;-52
2021/06/14 09:25:11;;;;;;;;;;;26.20;91.70;;;;;;5087537;28;19971;-51
2021/06/14 09:27:42;;;;;;;;;;;26.20;91.70;;;;;;5086829;28;20015;-52
2021/06/14 09:30:14;;;;;;;;;;;26.20;91.70;;;;;;5087379;28;19987;-53
2021/06/14 09:32:54;;;;;;;;;;;26.20;91.70;;;;;;5086934;28;19911;-57
2021/06/14 09:35:21;;;;;;;;;;;26.20;91.70;;;;;;5087342;28;20189;-53
2021/06/14 09:38:07;;;;;;;;;;;26.20;91.80;;;;;;5086875;28;19979;-52
2021/06/14 09:40:38;;;;;;;;;;;26.20;91.90;;;;;;5068731;28;20101;-52
2021/06/14 09:43:05;;;;;;;;;;;26.20;91.90;;;;;;5086563;28;19904;-51
2021/06/14 09:45:32;;;;;;;;;;;26.20;91.90;;;;;;5087061;28;19914;-54
2021/06/14 09:47:58;;;;;;;;;;;26.20;92.00;;;;;;5086362;28;19935;-53
2021/06/14 09:50:28;;;;;;;;;;;26.20;92.00;;;;;;5087093;28;19958;-50
2021/06/14 09:53:05;;;;;;;;;;;26.10;92.00;;;;;;5086583;28;19926;-50
2021/06/14 09:55:31;;;;;;;;;;;26.10;92.10;;;;;;5086399;28;19988;-54
2021/06/14 09:57:58;;;;;;;;;;;26.10;92.10;;;;;;5086364;28;19909;-50
2021/06/14 10:00:26;;;;;;;;;;;26.10;92.20;;;;;;5086682;28;20092;-53
2021/06/14 10:02:58;;;;;;;;;;;26.10;92.20;;;;;;5086547;28;19967;-52
2021/06/14 10:05:24;;;;;;;;;;;26.10;92.20;;;;;;5100437;28;20093;-51
2021/06/14 10:07:51;;;;;;;;;;;26.10;92.30;;;;;;5106449;28;19982;-53
2021/06/14 10:10:21;;;;;;;;;;;26.10;92.30;;;;;;5107049;28;19995;-51
2021/06/14 10:12:48;;;;;;;;;;;26.10;92.30;;;;;;5106273;28;20207;-51
2021/06/14 10:15:16;;;;;;;;;;;26.10;92.40;;;;;;5106698;28;19912;-52
2021/06/14 10:17:42;;;;;;;;;;;26.00;92.30;;;;;;5106112;28;19975;-51
2021/06/14 10:20:11;;;;;;;;;;;26.00;92.40;;;;;;5106547;28;19912;-51
2021/06/14 10:22:38;;;;;;;;;;;26.00;92.40;;;;;;5106181;28;19931;-51
2021/06/14 10:25:06;;;;;;;;;;;26.00;92.40;;;;;;5106687;28;19953;-54
2021/06/14 10:27:33;;;;;;;;;;;26.00;92.40;;;;;;5106302;28;20185;-54
2021/06/14 10:29:59;;;;;;;;;;;26.00;92.30;;;;;;5106450;28;19921;-50
2021/06/14 10:32:26;;;;;;;;;;;26.00;92.30;;;;;;5105991;28;19943;-51
2021/06/14 10:34:53;;;;;;;;;;;26.00;92.30;;;;;;5106328;28;19912;-55
2021/06/14 10:37:21;;;;;;;;;;;26.00;92.30;;;;;;5105938;28;20109;-55
2021/06/14 10:39:51;;;;;;;;;;;26.00;92.30;;;;;;5106348;28;20105;-51
2021/06/14 10:42:17;;;;;;;;;;;26.00;92.30;;;;;;5105896;28;20196;-51
2021/06/14 10:44:44;;;;;;;;;;;26.00;92.30;;;;;;5106138;28;19912;-55
2021/06/14 10:47:11;;;;;;;;;;;26.00;92.20;;;;;;5105692;28;20267;-51
2021/06/14 10:49:38;;;;;;;;;;;26.00;92.10;;;;;;5105920;28;19915;-52
2021/06/14 10:52:07;;;;;;;;;;;26.00;92.10;;;;;;5105522;28;19912;-53
2021/06/14 10:54:41;;;;;;;;;;;26.00;92.00;;;;;;5105838;28;19970;-54
2021/06/14 10:57:09;;;;;;;;;;;26.00;91.90;;;;;;5105732;28;19908;-54
2021/06/14 10:59:39;;;;;;;;;;;26.00;91.90;;;;;;5105680;28;19919;-52
2021/06/14 11:02:06;;;;;;;;;;;26.00;91.80;;;;;;5105767;28;20231;-59
2021/06/14 11:04:32;;;;;;;;;;;26.00;91.80;;;;;;5105672;28;19912;-49
2021/06/14 11:07:02;;;;;;;;;;;26.00;91.80;;;;;;5106061;28;20223;-52
2021/06/14 11:09:38;;;;;;;;;;;26.00;91.70;;;;;;5105658;28;20145;-54
2021/06/14 11:12:05;;;;;;;;;;;26.00;91.60;;;;;;5105175;28;20268;-53
2021/06/14 11:14:35;;;;;;;;;;;26.00;91.60;;;;;;5105510;28;19919;-53
2021/06/14 11:17:15;;;;;;;;;;;26.10;91.50;;;;;;5105185;28;19908;-54
2021/06/14 11:19:42;;;;;;;;;;;26.20;91.50;;;;;;5095229;28;20041;-51
2021/06/14 11:22:08;;;;;;;;;;;26.30;91.30;;;;;;5084954;28;19905;-53
2021/06/14 11:24:36;;;;;;;;;;;26.30;91.20;;;;;;5066918;28;19920;-52
2021/06/14 11:27:02;;;;;;;;;;;26.40;91.30;;;;;;5084850;28;19905;-54
2021/06/14 11:29:28;;;;;;;;;;;26.50;91.10;;;;;;5085145;28;19917;-52
2021/06/14 11:31:57;;;;;;;;;;;26.60;91.00;;;;;;5084056;28;19904;-50
2021/06/14 11:34:23;;;;;;;;;;;26.60;90.90;;;;;;5066934;28;20078;-52
2021/06/14 11:36:56;;;;;;;;;;;26.70;90.90;;;;;;5084430;28;19908;-52
2021/06/14 11:39:23;;;;;;;;;;;26.80;91.00;;;;;;5084595;28;19924;-51
2021/06/14 11:41:51;;;;;;;;;;;27.10;90.80;;;;;;5084424;28;19908;-58
2021/06/14 11:44:30;;;;;;;;;;;27.60;89.40;;;;;;5084818;28;19951;-57
2021/06/14 11:47:10;;;;;;;;;;;28.10;87.40;;;;;;5084335;28;19991;-55
2021/06/14 11:49:37;;;;;;;;;;;28.60;85.60;;;;;;5084703;28;19913;-52
2021/06/14 11:52:14;;;;;;;;;;;28.90;84.50;;;;;;5084173;28;19905;-56
2021/06/14 11:54:40;;;;;;;;;;;28.90;83.60;;;;;;5084368;28;19928;-52
2021/06/14 11:57:07;;;;;;;;;;;28.60;85.00;;;;;;5084365;28;19909;-53
2021/06/14 11:59:34;;;;;;;;;;;28.20;86.20;;;;;;5084707;28;20140;-56
2021/06/14 12:02:18;;;;;;;;;;;28.00;87.40;;;;;;5084162;28;19942;-52
2021/06/14 12:04:44;;;;;;;;;;;27.80;88.30;;;;;;5085538;28;20101;-51
2021/06/14 12:07:10;;;;;;;;;;;27.70;88.80;;;;;;5085576;28;19908;-52
2021/06/14 12:09:40;;;;;;;;;;;27.60;89.30;;;;;;5066537;28;19909;-55
2021/06/14 12:12:07;;;;;;;;;;;27.60;89.60;;;;;;5084124;28;19936;-53
2021/06/14 12:14:33;;;;;;;;;;;27.60;89.80;;;;;;5084435;28;19908;-58
2021/06/14 12:17:00;;;;;;;;;;;27.60;89.70;;;;;;5084063;28;19967;-53
2021/06/14 12:19:29;;;;;;;;;;;27.60;89.70;;;;;;5084218;28;20217;-53
2021/06/14 12:21:56;;;;;;;;;;;27.60;90.00;;;;;;5083986;28;19908;-54
2021/06/14 12:24:22;;;;;;;;;;;27.60;90.00;;;;;;5084407;28;19978;-52
2021/06/14 12:26:49;;;;;;;;;;;27.60;90.10;;;;;;5083860;28;19967;-52
2021/06/14 12:29:22;;;;;;;;;;;27.60;90.10;;;;;;5084336;28;19946;-55
2021/06/14 12:32:05;;;;;;;19.33;5.53;;;27.60;90.10;;;;;;5086541;28;19971;-53
2021/06/14 12:34:32;;;;;;;19.27;5.47;;;27.60;90.10;;;;;;5083763;28;20032;-57
2021/06/14 12:37:06;;;;;;;13.95;4.45;;;27.70;90.40;;;;;;5085359;28;20048;-56
2021/06/14 12:39:34;;;;;;;21.83;5.70;;;27.70;90.50;;;;;;5096720;28;20088;-54
2021/06/14 12:42:01;;;;;;;16.55;5.57;;;27.80;90.40;;;;;;5095332;28;20189;-57
2021/06/14 12:44:27;;;;;;;20.88;5.72;;;27.80;90.60;;;;;;5078033;28;20206;-60
2021/06/14 12:46:55;;;;;;;18.15;5.68;;;27.90;90.60;;;;;;5092705;28;20063;-61
2021/06/14 12:49:29;;;;;;;18.95;5.47;;;27.90;90.60;;;;;;5098679;28;20365;-57
2021/06/14 12:51:57;;;;;;;19.73;6.25;;;28.00;90.30;;;;;;5107271;28;20024;-56
2021/06/14 12:54:24;;;;;;;18.88;6.10;;;28.10;89.60;;;;;;5107397;28;20351;-58
2021/06/14 12:56:53;;;;;;;16.08;5.38;;;28.10;89.30;;;;;;5107374;28;20023;-55
2021/06/14 12:59:20;;;;;;;15.65;5.68;;;28.20;88.80;;;;;;5107178;28;20023;-58
2021/06/14 13:01:47;;;;;;;18.85;7.10;;;28.20;88.00;;;;;;5107334;28;20016;-67
2021/06/14 13:04:14;;;;;;;18.67;5.13;;;28.30;88.30;;;;;;5089218;28;20030;-67
2021/06/14 13:06:42;;;;;;;16.52;5.13;;;28.30;88.00;;;;;;5107262;28;20331;-59
2021/06/14 13:09:09;;;;;;;17.23;5.70;;;28.30;88.00;;;;;;5107423;28;20024;-58
2021/06/14 13:11:52;;;;;;;15.55;5.53;;;28.40;88.40;;;;;;5107046;28;20016;-56
2021/06/14 13:14:29;;;;;;;16.30;5.10;;;28.40;88.50;;;;;;5107240;28;20034;-56
2021/06/14 13:16:56;;;;;;;16.38;5.60;;;28.40;88.00;;;;;;5106913;28;20023;-56
2021/06/14 13:19:25;;;;;;;17.85;5.07;;;28.50;88.40;;;;;;5106958;28;20091;-58
2021/06/14 13:22:16;;;;;;;16.60;5.05;;;28.50;87.90;;;;;;5107149;28;20012;-56
2021/06/14 13:24:45;;;;;;;16.63;4.80;;;28.50;88.10;;;;;;5106814;28;20274;-57
2021/06/14 13:27:13;;;;;;;18.67;5.13;;;28.60;88.10;;;;;;5107003;28;20031;-57
2021/06/14 13:29:41;;;;;;;17.25;5.53;;;28.60;88.60;;;;;;5107230;28;20028;-58
2021/06/14 13:32:33;;;;;;;14.73;4.88;;;28.60;88.90;;;;;;5106666;28;20309;-55
2021/06/14 13:35:05;;;;;;;14.65;5.53;;;28.50;88.90;;;;;;5106427;28;20228;-54
2021/06/14 13:37:41;;;;;;;20.15;5.70;;;28.50;89.30;;;;;;5106638;28;20023;-53
2021/06/14 13:40:10;;;;;;;17.38;5.53;;;28.50;89.40;;;;;;5107070;28;20347;-54
2021/06/14 13:42:44;;;;;;;17.02;5.25;;;28.50;89.60;;;;;;5106294;28;20018;-56
2021/06/14 13:45:12;;;;;;;19.73;5.15;;;28.50;89.30;;;;;;5107015;28;20301;-56
2021/06/14 13:47:39;;;;;;;19.58;5.38;;;28.50;89.80;;;;;;5106446;28;20024;-53
2021/06/14 13:50:11;;;;;;;14.90;5.00;;;28.50;89.50;;;;;;5106800;28;20051;-56
2021/06/14 13:52:38;;;;;;;16.95;5.32;;;28.50;89.70;;;;;;5106509;28;20318;-54
2021/06/14 13:55:06;;;;;;;15.23;5.20;;;28.60;89.80;;;;;;5105510;28;20047;-53
2021/06/14 13:57:33;;;;;;;16.45;5.32;;;28.50;89.50;;;;;;5088632;28;20028;-55
2021/06/14 14:00:12;;;;;;;21.27;5.18;;;28.60;89.60;;;;;;5105980;28;20159;-60
2021/06/14 14:02:49;;;;;;;16.90;4.60;;;28.60;89.50;;;;;;5106128;28;20083;-56
2021/06/14 14:05:32;;;;;;;;;;;28.60;89.60;;;;;;5088707;28;19908;-58
2021/06/14 14:07:59;;;;;;;;;;;28.60;89.50;;;;;;5106407;28;19900;-55
2021/06/14 14:10:26;;;;;;;;;;;28.60;89.20;;;;;;5107094;28;19908;-61
2021/06/14 14:12:53;;;;;;;;;;;28.60;89.30;;;;;;5106461;28;19900;-54
2021/06/14 14:15:20;;;;;;;;;;;28.70;89.40;;;;;;5088427;28;19915;-56
2021/06/14 14:17:46;;;;;;;;;;;28.70;89.40;;;;;;5106437;28;19956;-54